Time;durP1;ratioP1;P1;durP2;ratioP2;P2;SDS_P1;SDS_P2;PMS_P1;PMS_P2;Temp;Humidity;BMP_temperature;BMP_pressure;BME280_temperature;BME280_humidity;BME280_pressure;Samples;Min_cycle;Max_cycle;Signal;HPM_P1;HPM_P2
2023/02/20 00:00:22;;;;;;;8.65;5.68;;;6.60;99.90;;;;;;4843378;29;20061;-88
2023/02/20 00:02:49;;;;;;;8.93;5.60;;;6.60;99.90;;;;;;4843667;29;20118;-89
2023/02/20 00:05:15;;;;;;;9.02;5.85;;;6.60;99.90;;;;;;4858960;29;20505;-89
2023/02/20 00:07:41;;;;;;;10.07;5.65;;;6.60;99.90;;;;;;4843872;29;20136;-88
2023/02/20 00:10:07;;;;;;;9.52;6.00;;;6.60;99.90;;;;;;4845734;29;20120;-90
2023/02/20 00:12:33;;;;;;;10.95;5.75;;;6.60;99.90;;;;;;4859900;29;20037;-89
2023/02/20 00:14:58;;;;;;;10.05;5.60;;;6.60;99.90;;;;;;4861446;29;20507;-90
2023/02/20 00:17:24;;;;;;;9.82;5.82;;;6.60;99.90;;;;;;4846539;29;20050;-90
2023/02/20 00:19:50;;;;;;;10.82;5.90;;;6.60;99.90;;;;;;4841441;29;20460;-90
2023/02/20 00:22:15;;;;;;;9.45;6.18;;;6.60;99.90;;;;;;4840752;29;20089;-89
2023/02/20 00:24:41;;;;;;;9.45;6.22;;;6.60;99.90;;;;;;4844773;29;20406;-89
2023/02/20 00:27:07;;;;;;;12.73;6.43;;;6.60;99.90;;;;;;4844855;29;20045;-90
2023/02/20 00:29:32;;;;;;;11.88;6.90;;;6.60;99.90;;;;;;4854935;29;20529;-89
2023/02/20 00:31:58;;;;;;;10.65;6.40;;;6.60;99.90;;;;;;4859719;29;20069;-89
2023/02/20 00:34:27;;;;;;;10.88;6.68;;;6.60;99.90;;;;;;4848000;29;20061;-89
2023/02/20 00:36:52;;;;;;;11.10;7.18;;;6.60;99.90;;;;;;4842025;29;20098;-89
2023/02/20 00:39:18;;;;;;;11.68;6.35;;;6.60;99.90;;;;;;4858130;29;20049;-89
2023/02/20 00:41:43;;;;;;;9.82;6.40;;;6.60;99.90;;;;;;4860007;29;20041;-89
2023/02/20 00:44:09;;;;;;;13.52;7.10;;;6.60;99.90;;;;;;4860338;29;20048;-89
2023/02/20 00:46:35;;;;;;;11.70;7.18;;;6.70;99.90;;;;;;4859230;29;20072;-89
2023/02/20 00:49:01;;;;;;;11.43;7.53;;;6.60;99.90;;;;;;4860597;29;20045;-89
2023/02/20 00:51:26;;;;;;;13.60;8.68;;;6.60;99.90;;;;;;4859055;29;20052;-89
2023/02/20 00:53:52;;;;;;;11.98;8.00;;;6.70;99.90;;;;;;4845416;29;20057;-89
2023/02/20 00:56:18;;;;;;;13.60;9.05;;;6.70;99.90;;;;;;4840139;29;20217;-89
2023/02/20 00:58:43;;;;;;;11.82;7.90;;;6.70;99.90;;;;;;4841519;29;20514;-89
2023/02/20 01:01:09;;;;;;;10.98;8.25;;;6.70;99.90;;;;;;4842642;29;20447;-90
2023/02/20 01:03:35;;;;;;;12.30;8.20;;;6.60;99.90;;;;;;4841619;29;20087;-89
2023/02/20 01:06:00;;;;;;;14.95;8.93;;;6.60;99.90;;;;;;4853307;29;20077;-89
2023/02/20 01:08:26;;;;;;;13.07;8.98;;;6.60;99.90;;;;;;4859289;29;20088;-89
2023/02/20 01:10:52;;;;;;;13.93;8.40;;;6.60;99.90;;;;;;4860288;29;20046;-90
2023/02/20 01:13:18;;;;;;;15.32;8.90;;;6.60;99.90;;;;;;4858609;29;20475;-89
2023/02/20 01:15:43;;;;;;;14.35;8.57;;;6.60;99.90;;;;;;4856963;29;20048;-89
2023/02/20 01:18:09;;;;;;;12.15;8.00;;;6.60;99.90;;;;;;4850350;29;20407;-89
2023/02/20 01:20:35;;;;;;;13.23;8.63;;;6.60;99.90;;;;;;4848072;29;20075;-88
2023/02/20 01:23:00;;;;;;;12.65;9.07;;;6.60;99.90;;;;;;4846267;29;20120;-89
2023/02/20 01:25:26;;;;;;;15.55;9.98;;;6.60;99.90;;;;;;4847599;29;20046;-90
2023/02/20 01:27:52;;;;;;;14.45;8.85;;;6.60;99.90;;;;;;4841719;29;20491;-89
2023/02/20 01:30:17;;;;;;;13.15;8.52;;;6.70;99.90;;;;;;4842213;29;20066;-90
2023/02/20 01:32:43;;;;;;;16.55;9.00;;;6.60;99.90;;;;;;4850558;29;20041;-90
2023/02/20 01:35:09;;;;;;;16.23;8.63;;;6.60;99.90;;;;;;4854574;29;20061;-89
2023/02/20 01:37:35;;;;;;;13.48;7.68;;;6.60;99.90;;;;;;4855088;29;20391;-90
2023/02/20 01:40:01;;;;;;;14.05;7.75;;;6.60;99.90;;;;;;4855941;29;20045;-89
2023/02/20 01:42:30;;;;;;;13.90;8.27;;;6.70;99.90;;;;;;4845770;29;20050;-89
2023/02/20 01:45:22;;;;;;;14.93;8.55;;;6.60;99.90;;;;;;4862810;29;20050;-89
2023/02/20 01:47:50;;;;;;;13.52;8.00;;;6.70;99.90;;;;;;4856004;29;20046;-89
2023/02/20 01:50:20;;;;;;;12.57;8.20;;;6.60;99.90;;;;;;4844390;29;20049;-90
2023/02/20 01:52:49;;;;;;;12.63;8.02;;;6.60;99.90;;;;;;4831808;29;20124;-89
2023/02/20 01:55:35;;;;;;;13.80;8.55;;;6.70;99.90;;;;;;4853578;29;20042;-89
2023/02/20 01:58:16;;;;;;;13.02;7.97;;;6.70;99.90;;;;;;4854198;29;20062;-89
2023/02/20 02:00:42;;;;;;;11.90;7.38;;;6.60;99.90;;;;;;4863057;29;20049;-89
2023/02/20 02:03:16;;;;;;;13.68;8.25;;;6.70;99.90;;;;;;4858815;29;20084;-90
2023/02/20 02:05:46;;;;;;;15.20;8.00;;;6.70;99.90;;;;;;4852667;29;20110;-89
2023/02/20 02:08:14;;;;;;;13.52;8.18;;;6.70;99.90;;;;;;4855013;29;20117;-88
2023/02/20 02:10:55;;;;;;;14.20;8.25;;;6.70;99.90;;;;;;4860842;29;20057;-88
2023/02/20 02:13:21;;;;;;;13.60;8.60;;;6.70;99.90;;;;;;4858190;29;20048;-89
2023/02/20 02:15:51;;;;;;;14.98;8.75;;;6.70;99.90;;;;;;4843743;29;20480;-89
2023/02/20 02:18:38;;;;;;;15.63;8.95;;;6.70;99.90;;;;;;4847261;29;20064;-89
2023/02/20 02:21:16;;;;;;;15.88;9.20;;;6.70;99.90;;;;;;4856464;29;20041;-89
2023/02/20 02:23:59;;;;;;;14.60;8.50;;;6.70;99.90;;;;;;4854364;29;20081;-89
2023/02/20 02:26:47;;;;;;;14.45;8.65;;;6.70;99.90;;;;;;4861646;29;20487;-88
2023/02/20 02:29:41;;;;;;;17.13;9.90;;;6.70;99.90;;;;;;4862032;29;20050;-87
2023/02/20 02:32:18;;;;;;;;;;;6.70;99.90;;;;;;4863228;29;20486;-89
2023/02/20 02:34:50;;;;;;;14.90;8.73;;;6.70;99.90;;;;;;4850079;29;19963;-88
2023/02/20 02:37:25;;;;;;;18.60;9.60;;;6.70;99.90;;;;;;4875982;29;20053;-88
2023/02/20 02:40:13;;;;;;;16.38;9.23;;;6.70;99.90;;;;;;4859980;29;20090;-88
2023/02/20 02:43:02;;;;;;;15.10;9.73;;;6.80;99.90;;;;;;4861216;29;20065;-88
2023/02/20 02:45:39;;;;;;;16.58;9.90;;;6.70;99.90;;;;;;4861523;29;20052;-89
2023/02/20 02:48:22;;;;;;;19.35;9.38;;;6.80;99.90;;;;;;4851150;29;20129;-90
2023/02/20 02:50:50;;;;;;;20.90;9.95;;;6.80;99.90;;;;;;4859072;29;20053;-90
2023/02/20 02:53:16;;;;;;;20.17;10.07;;;6.80;99.90;;;;;;4861184;29;20053;-89
2023/02/20 02:55:42;;;;;;;19.90;9.95;;;6.80;99.90;;;;;;4849001;29;20517;-88
2023/02/20 02:58:08;;;;;;;23.35;10.93;;;6.80;99.90;;;;;;4846322;29;20050;-88
2023/02/20 03:00:55;;;;;;;20.02;10.50;;;6.80;99.90;;;;;;4842842;29;20407;-88
2023/02/20 03:03:28;;;;;;;21.38;10.40;;;6.80;99.90;;;;;;4843268;29;20053;-88
2023/02/20 03:06:12;;;;;;;19.48;10.25;;;6.80;99.90;;;;;;4844622;29;20076;-89
2023/02/20 03:08:46;;;;;;;21.63;9.98;;;6.80;99.90;;;;;;4843531;29;20094;-89
2023/02/20 03:11:15;;;;;;;20.27;10.65;;;6.80;99.90;;;;;;4860792;29;20052;-89
2023/02/20 03:17:00;;;;;;;24.33;11.25;;;6.90;99.90;;;;;;4862023;29;20049;-88
2023/02/20 03:19:38;;;;;;;22.08;10.93;;;6.90;99.90;;;;;;4861473;29;20050;-88
2023/02/20 03:22:10;;;;;;;18.17;10.32;;;6.90;99.90;;;;;;4861185;29;20475;-88
2023/02/20 03:24:53;;;;;;;23.95;10.48;;;6.90;99.90;;;;;;4861207;29;20046;-90
2023/02/20 03:27:25;;;;;;;22.13;11.10;;;6.90;99.90;;;;;;4861115;29;20057;-89
2023/02/20 03:29:56;;;;;;;23.25;11.48;;;6.90;99.90;;;;;;4861292;29;20050;-89
2023/02/20 03:43:31;;;;;;;21.33;11.30;;;6.90;99.90;;;;;;4845590;29;20049;-90
2023/02/20 03:46:01;;;;;;;23.08;12.63;;;7.00;99.90;;;;;;4862207;29;20049;-90
2023/02/20 03:48:36;;;;;;;26.40;12.38;;;7.00;99.90;;;;;;4845765;29;20406;-90
2023/02/20 03:51:02;;;;;;;25.25;12.15;;;6.90;99.90;;;;;;4843787;29;20050;-91
2023/02/20 03:53:28;;;;;;;23.17;11.77;;;7.00;99.90;;;;;;4825807;29;20050;-91
2023/02/20 03:55:59;;;;;;;27.65;12.30;;;7.00;99.90;;;;;;4829030;29;20045;-90
2023/02/20 03:58:28;;;;;;;25.25;12.63;;;7.00;99.90;;;;;;4827859;29;20046;-90
2023/02/20 04:00:58;;;;;;;20.35;11.82;;;7.00;99.90;;;;;;4836927;29;20521;-89
2023/02/20 04:03:30;;;;;;;25.38;12.75;;;7.00;99.90;;;;;;4851675;29;20046;-90
2023/02/20 04:05:58;;;;;;;25.02;12.43;;;7.00;99.90;;;;;;4828500;29;20407;-91
2023/02/20 04:08:45;;;;;;;28.38;13.35;;;7.00;99.90;;;;;;4830075;29;20117;-89
2023/02/20 04:11:22;;;;;;;27.92;13.05;;;7.00;99.90;;;;;;4860236;29;20049;-89
2023/02/20 04:13:50;;;;;;;25.60;13.00;;;7.00;99.90;;;;;;4844687;29;20136;-90
2023/02/20 04:16:16;;;;;;;27.80;12.80;;;7.00;99.90;;;;;;4861638;29;20053;-89
2023/02/20 04:18:42;;;;;;;26.65;13.68;;;7.00;99.90;;;;;;4861552;29;20137;-91
2023/02/20 04:21:31;;;;;;;28.00;13.52;;;7.00;99.90;;;;;;4860213;29;20132;-91
2023/02/20 04:24:26;;;;;;;27.25;13.63;;;7.00;99.90;;;;;;4845538;29;20569;-91
2023/02/20 04:26:52;;;;;;;34.45;14.90;;;7.00;99.90;;;;;;4817423;29;20117;-89
2023/02/20 04:29:19;;;;;;;26.33;14.38;;;7.00;99.90;;;;;;4832197;29;20491;-90
2023/02/20 04:31:45;;;;;;;31.30;14.80;;;7.00;99.90;;;;;;4826806;29;20495;-89
2023/02/20 04:34:11;;;;;;;35.78;14.82;;;7.10;99.90;;;;;;4842151;29;20053;-89
2023/02/20 04:36:36;;;;;;;31.17;14.88;;;7.10;99.90;;;;;;4842200;29;20049;-90
2023/02/20 04:39:02;;;;;;;36.17;15.13;;;7.10;99.90;;;;;;4842795;29;20124;-90
2023/02/20 04:41:28;;;;;;;35.17;15.93;;;7.10;99.90;;;;;;4871653;29;20046;-90
2023/02/20 04:44:29;;;;;;;29.67;15.30;;;7.20;99.90;;;;;;4848145;29;20046;-90
2023/02/20 04:46:40;;;;;;;31.67;15.82;;;7.20;99.90;;;;;;4861481;29;20080;-90
2023/02/20 04:49:06;;;;;;;36.58;15.32;;;7.20;99.90;;;;;;4859639;29;20084;-89
2023/02/20 04:51:31;;;;;;;40.10;16.90;;;7.20;99.90;;;;;;4859742;29;20064;-90
2023/02/20 04:53:57;;;;;;;32.67;15.48;;;7.30;99.90;;;;;;4861441;29;20042;-89
2023/02/20 04:56:23;;;;;;;32.88;16.50;;;7.30;99.90;;;;;;4858253;29;20045;-89
2023/02/20 04:58:48;;;;;;;32.17;15.75;;;7.30;99.90;;;;;;4860394;29;20473;-90
2023/02/20 05:01:15;;;;;;;31.75;16.35;;;7.30;99.90;;;;;;4856640;29;20046;-90
2023/02/20 05:03:40;;;;;;;35.25;16.73;;;7.30;99.90;;;;;;4847676;29;20054;-90
2023/02/20 05:06:06;;;;;;;29.92;15.63;;;7.30;99.90;;;;;;4855741;29;20518;-91
2023/02/20 05:08:31;;;;;;;34.85;15.73;;;7.40;99.90;;;;;;4847223;29;20054;-91
2023/02/20 05:10:57;;;;;;;34.95;16.83;;;7.40;99.90;;;;;;4860035;29;20054;-90
2023/02/20 05:13:23;;;;;;;34.90;16.58;;;7.40;99.90;;;;;;4854424;29;20121;-89
2023/02/20 05:15:48;;;;;;;35.60;16.70;;;7.40;99.90;;;;;;4847332;29;20495;-90
2023/02/20 05:18:26;;;;;;;34.78;16.92;;;7.40;99.90;;;;;;4845395;29;20038;-90
2023/02/20 05:23:36;;;;;;;41.20;18.02;;;7.40;99.90;;;;;;4848455;29;20058;-91
2023/02/20 05:26:01;;;;;;;39.83;17.35;;;7.40;99.90;;;;;;4858941;29;20046;-92
2023/02/20 05:28:27;;;;;;;41.67;17.92;;;7.40;99.90;;;;;;4860509;29;20046;-92
2023/02/20 05:30:53;;;;;;;43.75;17.90;;;7.40;99.90;;;;;;4861242;29;20407;-92
2023/02/20 05:33:18;;;;;;;33.60;16.20;;;7.40;99.90;;;;;;4861727;29;20064;-94
2023/02/20 05:35:44;;;;;;;38.13;17.13;;;7.50;99.90;;;;;;4857400;29;20057;-88
2023/02/20 05:48:30;;;;;;;39.58;16.83;;;7.50;99.90;;;;;;4928950;24;20060;-90
2023/02/20 05:51:01;;;;;;;38.10;16.08;;;7.50;99.90;;;;;;4861929;29;20045;-93
2023/02/20 05:53:33;;;;;;;33.88;15.32;;;7.50;99.90;;;;;;4861634;29;20057;-91
2023/02/20 05:56:05;;;;;;;38.83;15.63;;;7.50;99.90;;;;;;4854670;29;20045;-87
2023/02/20 05:58:51;;;;;;;31.33;15.20;;;7.50;99.90;;;;;;4850168;29;20053;-88
2023/02/20 06:01:19;;;;;;;39.90;15.40;;;7.50;99.90;;;;;;4855450;29;20045;-88
2023/02/20 06:03:45;;;;;;;36.05;15.30;;;7.50;99.90;;;;;;4859102;29;20058;-88
2023/02/20 06:06:11;;;;;;;32.05;13.85;;;7.50;99.90;;;;;;4841896;29;20102;-88
2023/02/20 06:08:39;;;;;;;37.58;14.32;;;7.60;99.90;;;;;;4860099;29;20101;-88
2023/02/20 06:11:04;;;;;;;34.22;14.13;;;7.60;99.90;;;;;;4854265;29;20665;-89
2023/02/20 06:13:30;;;;;;;35.60;13.65;;;7.60;99.90;;;;;;4839029;29;20065;-89
2023/02/20 06:15:55;;;;;;;31.05;13.32;;;7.60;99.90;;;;;;4852222;29;20452;-88
2023/02/20 06:18:21;;;;;;;31.67;13.25;;;7.60;99.90;;;;;;4844104;29;20046;-87
2023/02/20 06:20:47;;;;;;;32.72;13.60;;;7.60;99.90;;;;;;4853054;29;20113;-89
2023/02/20 06:23:12;;;;;;;29.92;13.43;;;7.60;99.90;;;;;;4857910;29;20041;-88
2023/02/20 06:25:38;;;;;;;29.88;12.50;;;7.70;99.90;;;;;;4862328;29;20126;-89
2023/02/20 06:28:04;;;;;;;28.38;12.27;;;7.60;99.90;;;;;;4858827;29;20503;-87
2023/02/20 06:30:29;;;;;;;36.33;13.48;;;7.70;99.90;;;;;;4861376;29;20045;-88
2023/02/20 06:32:55;;;;;;;32.85;13.52;;;7.70;99.90;;;;;;4862132;29;20085;-88
2023/02/20 06:35:23;;;;;;;29.83;12.85;;;7.70;99.90;;;;;;4850921;29;20045;-87
2023/02/20 06:37:48;;;;;;;29.58;13.00;;;7.80;99.90;;;;;;4849774;29;20129;-88
2023/02/20 06:40:14;;;;;;;36.72;13.07;;;7.80;99.90;;;;;;4844985;29;20137;-88
2023/02/20 06:42:40;;;;;;;28.23;12.02;;;7.80;99.90;;;;;;4860360;29;20556;-88
2023/02/20 06:45:05;;;;;;;28.98;12.88;;;7.80;99.90;;;;;;4860865;29;20053;-89
2023/02/20 06:47:31;;;;;;;30.00;12.00;;;7.80;99.90;;;;;;4860894;29;20802;-87
2023/02/20 06:49:57;;;;;;;30.33;12.27;;;7.80;99.90;;;;;;4858139;29;20053;-87
2023/02/20 06:52:22;;;;;;;28.25;11.10;;;7.80;99.90;;;;;;4853791;29;20050;-86
2023/02/20 06:54:48;;;;;;;28.42;12.13;;;7.90;99.90;;;;;;4849469;29;20110;-89
2023/02/20 06:57:14;;;;;;;26.70;12.00;;;7.90;99.90;;;;;;4859398;29;20083;-88
2023/02/20 06:59:41;;;;;;;27.30;12.05;;;7.90;99.90;;;;;;4860383;29;20451;-88
2023/02/20 07:02:11;;;;;;;23.95;11.07;;;7.90;99.90;;;;;;4860335;29;20395;-88
2023/02/20 07:04:36;;;;;;;27.15;12.18;;;7.90;99.90;;;;;;4845396;29;20129;-87
2023/02/20 07:07:02;;;;;;;27.88;12.95;;;7.90;99.90;;;;;;4858533;29;20140;-87
2023/02/20 07:09:28;;;;;;;28.75;12.82;;;7.90;99.90;;;;;;4862849;29;20053;-87
2023/02/20 07:11:54;;;;;;;26.65;12.65;;;7.90;99.90;;;;;;4861095;29;20037;-87
2023/02/20 07:14:20;;;;;;;27.35;12.45;;;8.00;99.90;;;;;;4860889;29;20422;-88
2023/02/20 07:16:46;;;;;;;26.38;12.13;;;7.90;99.90;;;;;;4860046;29;20502;-89
2023/02/20 07:19:12;;;;;;;28.75;12.77;;;7.90;99.90;;;;;;4862172;29;20060;-89
2023/02/20 07:21:37;;;;;;;26.10;11.68;;;8.00;99.90;;;;;;4859936;29;20048;-88
2023/02/20 07:24:04;;;;;;;27.52;12.10;;;8.00;99.90;;;;;;4861170;29;20048;-89
2023/02/20 07:26:29;;;;;;;23.73;11.57;;;8.00;99.90;;;;;;4861724;29;20049;-88
2023/02/20 07:32:23;;;;;;;27.40;11.18;;;8.00;99.90;;;;;;4857035;24;20181;-86
2023/02/20 07:34:49;;;;;;;24.75;11.00;;;8.00;99.90;;;;;;4843604;29;20538;-87
2023/02/20 07:37:15;;;;;;;29.10;11.40;;;8.10;99.90;;;;;;4841355;29;20048;-87
2023/02/20 07:39:43;;;;;;;22.83;12.10;;;8.10;99.90;;;;;;4834051;29;20523;-87
2023/02/20 07:42:08;;;;;;;29.23;12.13;;;8.10;99.90;;;;;;4827262;29;20046;-87
2023/02/20 07:44:35;;;;;;;24.83;11.77;;;8.10;99.90;;;;;;4838575;29;20121;-88
2023/02/20 07:47:00;;;;;;;23.73;12.50;;;8.10;99.90;;;;;;4840501;29;20491;-88
2023/02/20 07:49:26;;;;;;;27.02;11.85;;;8.10;99.90;;;;;;4827434;29;20049;-86
2023/02/20 07:51:51;;;;;;;29.00;12.32;;;8.10;99.90;;;;;;4828442;29;20054;-88
2023/02/20 07:54:17;;;;;;;26.27;11.75;;;8.10;99.90;;;;;;4842401;29;20033;-88
2023/02/20 07:56:43;;;;;;;27.85;12.02;;;8.10;99.90;;;;;;4843729;29;20430;-89
2023/02/20 07:59:09;;;;;;;23.08;12.02;;;8.20;99.90;;;;;;4840086;29;20050;-89
2023/02/20 08:01:35;;;;;;;24.27;11.23;;;8.20;99.90;;;;;;4841293;29;20053;-87
2023/02/20 08:04:00;;;;;;;21.85;10.70;;;8.20;99.90;;;;;;4841639;29;20054;-87
2023/02/20 08:06:27;;;;;;;22.55;10.40;;;8.20;99.90;;;;;;4841177;29;20052;-87
2023/02/20 08:08:53;;;;;;;22.90;10.32;;;8.20;99.90;;;;;;4842901;29;20076;-87
2023/02/20 08:11:21;;;;;;;26.23;10.30;;;8.20;99.90;;;;;;4841439;29;20050;-87
2023/02/20 08:13:47;;;;;;;24.83;10.13;;;8.20;99.90;;;;;;4840901;29;20086;-87
2023/02/20 08:16:13;;;;;;;20.42;9.75;;;8.20;99.90;;;;;;4841366;29;20096;-87
2023/02/20 08:18:39;;;;;;;26.05;10.05;;;8.30;99.90;;;;;;4843036;29;20042;-89
2023/02/20 08:21:04;;;;;;;24.08;10.98;;;8.30;99.90;;;;;;4840793;29;20384;-88
2023/02/20 08:23:30;;;;;;;25.38;9.90;;;8.30;99.90;;;;;;4842444;29;20053;-89
2023/02/20 08:25:56;;;;;;;25.45;9.13;;;8.30;99.90;;;;;;4842729;29;20046;-88
2023/02/20 08:28:22;;;;;;;20.08;9.15;;;8.30;99.90;;;;;;4841160;29;20054;-88
2023/02/20 08:30:47;;;;;;;18.30;8.65;;;8.40;99.90;;;;;;4841515;29;20555;-90
2023/02/20 08:33:14;;;;;;;22.10;10.13;;;8.40;99.90;;;;;;4843320;29;20045;-91
2023/02/20 08:35:40;;;;;;;24.50;8.80;;;8.40;99.90;;;;;;4837159;29;20070;-90
2023/02/20 08:38:20;;;;;;;26.30;9.52;;;8.40;99.90;;;;;;4838544;29;20041;-90
2023/02/20 08:40:46;;;;;;;22.67;8.95;;;8.40;99.90;;;;;;4825810;29;20499;-89
2023/02/20 08:43:12;;;;;;;21.27;8.50;;;8.40;99.90;;;;;;4838319;29;20058;-93
2023/02/20 08:45:37;;;;;;;18.98;7.95;;;8.40;99.90;;;;;;4842295;29;20050;-90
2023/02/20 08:48:03;;;;;;;19.90;8.43;;;8.40;99.90;;;;;;4835925;29;20106;-90
2023/02/20 08:50:29;;;;;;;22.17;9.00;;;8.40;99.90;;;;;;4840895;29;20044;-91
2023/02/20 08:52:54;;;;;;;20.08;8.48;;;8.40;99.90;;;;;;4833972;29;20050;-93
2023/02/20 08:55:20;;;;;;;19.98;7.90;;;8.50;99.90;;;;;;4832664;29;20125;-91
2023/02/20 08:57:45;;;;;;;26.70;8.43;;;8.50;99.90;;;;;;4837514;29;20577;-91
2023/02/20 09:00:14;;;;;;;18.83;7.75;;;8.50;99.90;;;;;;4840782;29;20073;-90
2023/02/20 09:02:40;;;;;;;22.05;8.32;;;8.50;99.90;;;;;;4835209;29;20460;-91
2023/02/20 09:05:06;;;;;;;16.65;7.80;;;8.50;99.90;;;;;;4837626;29;20042;-92
2023/02/20 09:07:32;;;;;;;23.63;8.85;;;8.50;99.90;;;;;;4825563;29;20072;-93
2023/02/20 09:09:57;;;;;;;26.52;7.45;;;8.60;99.90;;;;;;4837860;29;20039;-89
2023/02/20 09:12:23;;;;;;;27.02;7.32;;;8.60;99.90;;;;;;4839344;29;20495;-89
2023/02/20 09:14:48;;;;;;;18.40;7.05;;;8.60;99.90;;;;;;4837093;29;20054;-90
2023/02/20 09:17:15;;;;;;;19.48;7.38;;;8.60;99.90;;;;;;4834137;29;20522;-92
2023/02/20 09:19:41;;;;;;;20.52;7.30;;;8.60;99.90;;;;;;4840712;29;20061;-90
2023/02/20 09:22:06;;;;;;;19.02;7.38;;;8.60;99.90;;;;;;4837933;29;20050;-92
2023/02/20 09:24:33;;;;;;;18.80;6.75;;;8.70;99.90;;;;;;4836889;29;20510;-93
2023/02/20 09:27:05;;;;;;;24.38;7.68;;;8.70;99.90;;;;;;4836681;29;20057;-92
2023/02/20 09:29:30;;;;;;;19.48;7.45;;;8.70;99.90;;;;;;4834201;29;20531;-94
2023/02/20 09:31:56;;;;;;;16.25;6.50;;;8.70;99.90;;;;;;4841478;29;20115;-92
2023/02/20 09:34:22;;;;;;;20.85;7.30;;;8.80;99.90;;;;;;4835437;29;20499;-93
2023/02/20 09:36:48;;;;;;;19.35;6.72;;;8.80;99.90;;;;;;4840935;29;20146;-92
2023/02/20 09:39:16;;;;;;;19.55;6.78;;;8.80;99.90;;;;;;4834725;29;20038;-93
2023/02/20 09:41:57;;;;;;;21.67;7.03;;;8.80;99.90;;;;;;4840532;29;20503;-92
2023/02/20 09:44:23;;;;;;;20.33;7.25;;;8.80;99.90;;;;;;4838624;29;20054;-92
2023/02/20 09:46:50;;;;;;;18.42;7.05;;;8.80;99.90;;;;;;4833341;29;20049;-93
2023/02/20 09:49:23;;;;;;;17.50;6.60;;;8.80;99.90;;;;;;4841850;29;20050;-92
2023/02/20 09:51:58;;;;;;;;;;;8.80;99.90;;;;;;4836738;29;20045;-90
2023/02/20 09:54:47;;;;;;;18.77;6.35;;;8.80;99.90;;;;;;4830211;29;19997;-91
2023/02/20 09:57:16;;;;;;;21.90;6.70;;;8.80;99.90;;;;;;4839736;29;20053;-92
2023/02/20 09:59:47;;;;;;;16.83;6.40;;;8.80;99.90;;;;;;4829762;29;20133;-91
2023/02/20 10:02:27;;;;;;;16.63;6.32;;;8.80;99.90;;;;;;4840344;29;20458;-90
2023/02/20 10:05:03;;;;;;;19.95;6.72;;;8.80;99.90;;;;;;4830495;29;20178;-90
2023/02/20 10:07:41;;;;;;;19.33;6.95;;;8.80;99.90;;;;;;4843539;29;20042;-92
2023/02/20 10:10:29;;;;;;;21.25;7.13;;;8.90;99.90;;;;;;4845448;29;20591;-93
2023/02/20 10:13:12;;;;;;;20.42;7.13;;;8.90;99.90;;;;;;4843732;29;20045;-91
2023/02/20 10:16:02;;;;;;;19.27;7.20;;;8.90;99.90;;;;;;4844534;29;20072;-91
2023/02/20 10:18:45;;;;;;;22.30;7.97;;;9.00;99.90;;;;;;4840343;29;20050;-91
2023/02/20 10:21:29;;;;;;;17.23;7.10;;;8.90;99.90;;;;;;4835692;29;20107;-93
2023/02/20 10:24:23;;;;;;;19.35;7.93;;;8.90;99.90;;;;;;4839015;29;20448;-91
2023/02/20 10:26:56;;;;;;;18.92;7.60;;;9.00;99.90;;;;;;4811127;29;20126;-91
2023/02/20 10:29:23;;;;;;;;;;;9.00;99.90;;;;;;4836823;29;20054;-89
2023/02/20 10:31:58;;;;;;;21.15;8.43;;;8.90;99.90;;;;;;4837836;29;20297;-92
2023/02/20 10:34:38;;;;;;;21.77;8.90;;;8.90;99.90;;;;;;4838736;29;20098;-91
2023/02/20 10:37:17;;;;;;;23.67;10.45;;;9.00;99.90;;;;;;4836896;29;20069;-89
2023/02/20 10:39:59;;;;;;;18.77;7.10;;;9.00;99.90;;;;;;4836245;29;20041;-89
2023/02/20 10:42:34;;;;;;;15.98;7.38;;;9.00;99.90;;;;;;4831054;29;20448;-89
2023/02/20 10:45:08;;;;;;;16.52;7.60;;;9.00;99.90;;;;;;4840813;29;20046;-89
2023/02/20 10:47:49;;;;;;;16.50;7.43;;;9.00;99.90;;;;;;4844287;29;20037;-92
2023/02/20 10:50:28;;;;;;;24.65;7.95;;;9.00;99.90;;;;;;4831293;29;20167;-92
2023/02/20 10:52:58;;;;;;;15.45;7.50;;;9.10;99.90;;;;;;4840601;29;20057;-89
2023/02/20 10:55:35;;;;;;;17.52;7.97;;;9.10;99.90;;;;;;4842680;29;20033;-90
2023/02/20 10:58:18;;;;;;;20.60;8.02;;;9.10;99.90;;;;;;4842845;29;20058;-89
2023/02/20 11:01:02;;;;;;;18.50;7.80;;;9.10;99.90;;;;;;4841200;29;20125;-95
2023/02/20 11:03:30;;;;;;;;;;;9.10;99.90;;;;;;4842151;29;20337;-91
2023/02/20 11:06:03;;;;;;;19.30;6.95;;;9.10;99.90;;;;;;4845041;29;19941;-95
2023/02/20 11:13:39;;;;;;;20.38;7.38;;;9.20;99.90;;;;;;4868241;24;20054;-93
2023/02/20 11:16:08;;;;;;;16.70;7.32;;;9.20;99.90;;;;;;4838107;29;20065;-94
2023/02/20 11:18:38;;;;;;;15.85;6.60;;;9.20;99.90;;;;;;4844727;29;20050;-92
2023/02/20 11:21:04;;;;;;;19.88;7.10;;;9.20;99.90;;;;;;4843670;29;20121;-92
2023/02/20 11:23:43;;;;;;;18.05;7.45;;;9.30;99.90;;;;;;4842175;29;20129;-96
2023/02/20 11:26:23;;;;;;;20.77;6.55;;;9.30;99.90;;;;;;4842766;29;20042;-92
2023/02/20 11:29:13;;;;;;;18.73;7.55;;;9.30;99.90;;;;;;4840427;29;20539;-95
2023/02/20 11:34:20;;;;;;;16.98;7.97;;;9.30;99.90;;;;;;4847409;29;20534;-93
2023/02/20 11:36:50;;;;;;;17.55;7.65;;;9.30;99.90;;;;;;4839751;29;20046;-94
2023/02/20 11:39:27;;;;;;;18.77;7.05;;;9.40;99.90;;;;;;4824648;29;20046;-94
2023/02/20 11:42:10;;;;;;;17.67;7.70;;;9.40;99.90;;;;;;4839989;29;20124;-94
2023/02/20 11:44:35;;;;;;;21.33;7.80;;;9.40;99.90;;;;;;4825922;29;20102;-95
2023/02/20 11:47:26;;;;;;;19.25;7.05;;;9.40;99.90;;;;;;4843307;29;20042;-95
2023/02/20 11:50:16;;;;;;;17.23;6.65;;;9.40;99.90;;;;;;4843125;29;20057;-94
2023/02/20 11:53:03;;;;;;;15.95;6.07;;;9.40;99.90;;;;;;4833227;29;20046;-93
2023/02/20 11:55:29;;;;;;;14.57;6.50;;;9.40;99.90;;;;;;4838031;29;20129;-94
2023/02/20 11:57:55;;;;;;;15.40;5.88;;;9.40;99.90;;;;;;4844131;29;20050;-91
2023/02/20 12:00:43;;;;;;;19.63;6.22;;;9.50;99.90;;;;;;4841921;29;20534;-91
2023/02/20 12:03:09;;;;;;;16.38;5.82;;;9.50;99.90;;;;;;4841058;29;20062;-89
2023/02/20 12:05:46;;;;;;;17.17;5.88;;;9.50;99.90;;;;;;4837711;29;20528;-89
2023/02/20 12:08:52;;;;;;;16.13;5.70;;;9.50;99.90;;;;;;4853379;29;20038;-91
2023/02/20 12:11:25;;;;;;;21.92;5.85;;;9.60;99.90;;;;;;4820374;29;20069;-88
2023/02/20 12:13:52;;;;;;;15.00;5.87;;;9.60;99.90;;;;;;4838840;29;20050;-91
2023/02/20 12:16:36;;;;;;;16.20;5.53;;;9.60;99.90;;;;;;4840424;29;20080;-92
2023/02/20 12:19:16;;;;;;;17.13;6.13;;;9.60;99.90;;;;;;4830442;29;20046;-92
2023/02/20 12:22:00;;;;;;;16.98;5.65;;;9.60;99.90;;;;;;4836516;29;20053;-92
2023/02/20 12:24:35;;;;;;;;;;;9.60;99.90;;;;;;4839848;29;20106;-90
2023/02/20 12:27:04;;;;;;;17.60;5.88;;;9.60;99.90;;;;;;4841060;29;19921;-91
2023/02/20 12:30:07;;;;;;;19.23;5.57;;;9.60;99.90;;;;;;4835971;29;20041;-92
2023/02/20 12:32:52;;;;;;;20.85;6.07;;;9.70;99.90;;;;;;4831071;29;20061;-91
2023/02/20 12:35:44;;;;;;;17.17;5.80;;;9.60;99.90;;;;;;4838166;24;20132;-89
2023/02/20 12:38:29;;;;;;;16.73;5.50;;;9.70;99.90;;;;;;4838680;29;20050;-88
2023/02/20 12:41:22;;;;;;;18.17;5.68;;;9.70;99.90;;;;;;4824736;29;20107;-90
2023/02/20 12:44:11;;;;;;;20.50;5.53;;;9.70;99.90;;;;;;4840520;29;20061;-89
2023/02/20 12:46:56;;;;;;;19.70;4.85;;;9.70;99.90;;;;;;4823476;29;20057;-89
2023/02/20 12:49:43;;;;;;;18.80;6.35;;;9.70;99.90;;;;;;4837311;29;20380;-90
2023/02/20 12:52:43;;;;;;;15.48;5.30;;;9.70;99.90;;;;;;4828000;29;20057;-90
2023/02/20 12:55:27;;;;;;;18.25;5.95;;;9.70;99.90;;;;;;4832589;29;20066;-89
2023/02/20 12:58:08;;;;;;;16.23;5.28;;;9.70;99.90;;;;;;4839500;29;20045;-89
2023/02/20 13:00:39;;;;;;;14.77;5.35;;;9.80;99.90;;;;;;4834021;29;20089;-89
2023/02/20 13:03:10;;;;;;;18.20;5.30;;;9.80;99.90;;;;;;4838351;29;20093;-90
2023/02/20 13:05:40;;;;;;;13.50;5.07;;;9.80;99.90;;;;;;4841126;29;20216;-89
2023/02/20 13:08:17;;;;;;;14.77;5.15;;;9.80;99.90;;;;;;4835168;29;20046;-90
2023/02/20 13:10:52;;;;;;;15.75;5.50;;;9.80;99.90;;;;;;4833344;29;20041;-89
2023/02/20 13:13:19;;;;;;;16.95;5.32;;;9.80;99.90;;;;;;4840489;29;20044;-88
2023/02/20 13:16:08;;;;;;;21.17;5.75;;;9.90;99.90;;;;;;4840898;29;20038;-89
2023/02/20 13:18:44;;;;;;;16.27;5.00;;;9.90;99.90;;;;;;4820925;29;20050;-89
2023/02/20 13:21:21;;;;;;;12.82;5.10;;;9.90;99.90;;;;;;4846406;29;20102;-89
2023/02/20 13:23:49;;;;;;;16.45;5.55;;;9.90;99.90;;;;;;4843878;29;20045;-87
2023/02/20 13:26:33;;;;;;;16.38;5.15;;;9.90;99.90;;;;;;4839079;29;20042;-87
2023/02/20 13:29:28;;;;;;;15.80;4.95;;;9.90;99.90;;;;;;4846534;29;20061;-87
2023/02/20 13:31:58;;;;;;;18.60;5.57;;;9.90;99.90;;;;;;4822738;29;20525;-87
2023/02/20 13:34:35;;;;;;;18.20;4.72;;;9.90;99.90;;;;;;4845141;29;20062;-88
2023/02/20 13:37:01;;;;;;;14.70;4.95;;;10.00;99.90;;;;;;4842634;29;20141;-88
2023/02/20 13:39:38;;;;;;;17.33;5.10;;;9.90;99.90;;;;;;4841343;29;20432;-88
2023/02/20 13:42:31;;;;;;;15.68;6.68;;;10.00;99.90;;;;;;4832844;29;20049;-89
2023/02/20 13:44:58;;;;;;;14.55;5.25;;;10.00;99.90;;;;;;4842295;29;20062;-88